Monday, December 18, 2017, 5:39 AM EST
Back to Local

KMVY, Vineyard Haven Marthas Vin

Location: Vineyard Haven, MA, United States Lat: 41.4
Local Time: 5:39 AM EST (10:39 GMT) Lon: -70.617
Time Zone: US/Eastern Elev: 68 ft

Show me the last for .
Show Decoded

2017-12-18 05:23 METAR KMVY 181023Z AUTO 00000KT 10SM OVC029 A3019 RMK AO2 $ =
2017-12-18 04:53 METAR KMVY 180953Z AUTO 00000KT 10SM BKN032 OVC120 A3019 RMK AO2 SLPNO $ =
2017-12-18 03:53 METAR KMVY 180853Z AUTO 23003KT 10SM BKN050 BKN120 A3021 RMK AO2 SLPNO 58003 $ =
2017-12-18 02:53 METAR KMVY 180753Z AUTO 02003KT 10SM OVC075 A3022 RMK AO2 SLPNO $ =
2017-12-18 01:53 METAR KMVY 180653Z AUTO 00000KT 10SM FEW095 M17/ A3023 RMK AO2 SLP238 T1167 $ =
2017-12-18 00:53 METAR KMVY 180553Z AUTO 00000KT 10SM CLR A3022 RMK AO2 SLPNO 58014 $ =
2017-12-17 23:53 METAR KMVY 180453Z AUTO 00000KT 10SM CLR A3024 RMK AO2 SLPNO $ =
2017-12-17 22:53 METAR KMVY 180353Z AUTO 00000KT 10SM CLR A3025 RMK AO2 SLPNO $ =
2017-12-17 21:53 METAR KMVY 180253Z AUTO 00000KT 10SM CLR A3026 RMK AO2 SLPNO 58003 $ =
2017-12-17 20:53 METAR KMVY 180153Z AUTO 34003KT 10SM CLR A3028 RMK AO2 SLPNO $ =
2017-12-17 19:53 METAR KMVY 180053Z AUTO 36003KT 10SM CLR M17/ A3027 RMK AO2 SLPNO T1167 $ =
2017-12-17 18:53 METAR KMVY 172353Z AUTO 00000KT 10SM CLR A3027 RMK AO2 SLPNO 53014 $ =
2017-12-17 17:53 METAR KMVY 172253Z AUTO 31004KT 10SM CLR A3025 RMK AO2 SLPNO $ =
2017-12-17 16:53 METAR KMVY 172153Z 32004KT 10SM CLR M02/M12 A3024 RMK AO2 SLPNO T10221122 $ =
2017-12-17 15:53 METAR KMVY 172053Z 33003KT 10SM CLR A3023 RMK AO2 SLPNO 53001 $ =
2017-12-17 14:53 METAR KMVY 171953Z 29004KT 10SM CLR A3021 RMK AO2 SLPNO $ =
2017-12-17 13:53 METAR KMVY 171853Z 26005KT 10SM CLR M02/M12 A3022 RMK AO2 SLP235 T10221122 $ =
2017-12-17 12:53 METAR KMVY 171753Z 34007KT 10SM CLR M02/M12 A3023 RMK AO2 SLPNO T10221122 58010
                 $ =
2017-12-17 11:53 METAR KMVY 171653Z 33008KT 10SM CLR M03/M12 A3024 RMK AO2 SLP242 T10281122 $ =
2017-12-17 10:53 METAR KMVY 171553Z 32010KT 10SM CLR M03/M12 A3026 RMK AO2 SLPNO T10281122 $ =
2017-12-17 09:53 METAR KMVY 171453Z 35012KT 10SM CLR M04/M11 A3026 RMK AO2 SLPNO T10391111 50004
                 $ =
2017-12-17 08:53 METAR KMVY 171353Z 33009KT 10SM CLR A3026 RMK AO2 SLPNO $ =
2017-12-17 07:53 METAR KMVY 171253Z 33009KT 10SM CLR A3025 RMK AO2 SLPNO $ =
2017-12-17 06:53 METAR KMVY 171153Z 33007KT 10SM CLR M05/M11 A3025 RMK AO2 SLPNO T10501111 50012
                 $ =
2017-12-17 05:53 METAR KMVY 171053Z AUTO 31006KT 10SM CLR A3026 RMK AO2 SLPNO $ =

Support USWX by starting your Amazon purchase here.